Detall de PIREP

Printer-friendly versionPDF version

[2014/08/23 09:34:00]
Flight IATA:CT3225
Pilot Number:012
Company ICAO:CAT
Aircraft Type:B738/F
PAX:160
Departing Airport: LJLJ
Destination Airport: LEPA
Alternate Airport:LEBL
Online: VATSIM
Route:RIFEN UM196 LAGEN UM859 VAMTU UM984 DIVKO UN852 VERSO UL129 LUNIK
Flight Level:F370
No Slew and time accel
No pause
Crash detect
Detect pilot in Cockpit between each 30 and 45 minutes
09:34 Zero fuel Weight: 127548 Lbs, Fuel Weight: 17145 Lbs
09:34 VATSIM:LJLJ 230900Z 28003KT 230V320 9999 -RA FEW026 SCT040 OVC073 16/15 Q1016 NOSIG
09:34 VATSIM:LEPA 230900Z 06009KT 030V100 9999 FEW018 SCT055 27/18 Q1017 NOSIG
09:36 Parking Brakes off
09:43 Take-off
09:43 Take off Weight: 143859 Lbs
09:43 Wind: 260º @ 003 Knots Heading: 306º
09:43 POS N46º 13´ 33´´ E014º 27´ 11´´
09:43 Gear Up: 160 Knots
09:43 Flaps:3 at 160 Knots
09:43 Flaps:2 at 206 Knots
09:43 Flaps:1 at 209 Knots
09:44 Flaps:0 at 211 Knots
09:58 Wind:225º@036 Knots Heading: 244º Ground Speed: 442 Knots Altitude 30229 ft
10:02 TOC
10:02 Fuel Weight: 12531 Lb
10:13 Wind:246º@052 Knots Heading: 249º Ground Speed: 409 Knots Altitude 36991 ft
10:28 Wind:265º@051 Knots Heading: 250º Ground Speed: 417 Knots Altitude 36988 ft
10:43 Wind:259º@058 Knots Heading: 249º Ground Speed: 388 Knots Altitude 36991 ft
10:58 Wind:261º@058 Knots Heading: 214º Ground Speed: 430 Knots Altitude 37083 ft
11:13 Wind:253º@064 Knots Heading: 207º Ground Speed: 428 Knots Altitude 37129 ft
11:14 TOD
11:14 Fuel Weight: 6162 Lb
11:28 Wind:278º@012 Knots Heading: 245º Ground Speed: 261 Knots Altitude 9186 ft
11:32 Flaps:1 at 205 Knots
11:32 Flaps:2 at 187 Knots
11:32 Flaps:3 at 183 Knots
11:32 Flaps:4 at 177 Knots
11:33 Flaps:5 at 156 Knots
11:33 Flaps:6 at 158 Knots
11:34 Gear Down: 153 Knots
11:35 Flaps:7 at 144 Knots
11:35 Flaps:8 at 137 Knots
11:38 TouchDown:Rate -245 ft/min Speed: 130 Knots
11:38 Flaps:6 at 62 Knots
11:38 Flaps:0 at 57 Knots
11:38 VATSIM:LEPA 231130Z 05011KT 010V100 9999 FEW018 29/18 Q1017 NOSIG
11:38 Land
11:38 Wind:043º@011 Knots
11:38 Heading: 056º
11:38 Flight Duration: 01:55
11:38 Landing Weight: 132416 Lbs
11:38 POS N39º 33´ 13´´ E002º 43´ 29´´
11:40 Parking brakes on
11:40 Block to Block Duration: 02:04
11:40 Final Fuel: 4726 Lbls
11:40 Spent Fuel: 12418 Lbls
11:40 Flight Length: 739 NM
11:40 TOD Land Length: 118 NM

Exportar CSV

Powered by Drupal - Modified by Danger4k